עמוד ראשי
METAR-TAF:

METAR-TAF

שדות תעופה :

במקו, מאלי

קו רוחב: 12-32N, קו אורך: 007-57W, גובה: 380מטר

תצפית מזג אוויר נוכחית

הדו"ח נערך לפני 28דקות, בשעה 08:30 UTC
רוח 5קשר מכיוון צפון
טמפרטורת 29 צלסיוס
לחות 16%
לחץ 1012 hPa
ראות: 8000מטר

METAR: GABS 280830Z 36005KT 8000 NSC 29/01 Q1012 NOSIG

זמן: 08:58 (08:58 UTC)

תחזית

הדו"ח נערך לפני 3 שעות ו 58דקות, בשעה 05:00 UTC
תחזית בתוקף מ 28 ב 06 UTC עד 29 ב 12 UTC
רוח 5קשר עם כיוונים משתנים
ראות: 8000מטר
זמנית מ -
28 ב 06 UTC עד 28 ב 10 UTC
ראות: 4500מטר
אובך,

TAF: GABS 280500Z 2806/2912 VRB05KT 8000 NSC TEMPO 2806/2810 4500 HZ

תצפיות ותחזיות מזג אוויר לגבי יותר מ- 4,000 שדות תעופה ברחבי העולם. דוחות METAR ו- TAF.

התחנות הזמינות מסומנות בנקודות צהובות ואדומות על גבי המפה.

העבר את העכבר לנקודה הצבעונית על מנת לראות את שם התחנה.

לאחר מכן, לחץ כדי לראות את תוכן ואת תחזיות מזג האוויר.

כדי לשנות את המפה: לחץ על הכפתורים הירוקים עם הפלוס השחור כדי להתקרב; על הכפתור הירוק עם המקף כדי להתרחק; או בחיצים הירוקים למפות סמוכות.


METAR-TAF: